createdAt,value
2019-02-26T00:01:08.109Z,5.20
2019-02-26T00:03:45.978Z,5.10
2019-02-26T00:06:22.777Z,5.10
2019-02-26T00:08:59.389Z,5.10
2019-02-26T00:11:47.687Z,5.20
2019-02-26T00:14:27.384Z,5.20
2019-02-26T00:17:08.541Z,5.10
2019-02-26T00:20:12.802Z,5.10
2019-02-26T00:23:37.538Z,4.90
2019-02-26T00:26:20.211Z,4.80
2019-02-26T00:28:54.262Z,4.70
2019-02-26T00:31:33.820Z,4.60
2019-02-26T00:34:16.024Z,4.60
2019-02-26T00:36:51.141Z,4.50
2019-02-26T00:43:23.311Z,4.40
2019-02-26T00:46:00.837Z,4.30
2019-02-26T00:48:36.117Z,4.30
2019-02-26T00:51:23.125Z,4.30
2019-02-26T00:54:04.892Z,4.20
2019-02-26T00:57:13.755Z,4.20
2019-02-26T00:59:48.110Z,4.10
2019-02-26T01:02:25.354Z,4.10
2019-02-26T01:05:08.656Z,4.00
2019-02-26T01:07:44.963Z,4.00
2019-02-26T01:10:23.430Z,3.80
2019-02-26T01:13:55.071Z,3.80
2019-02-26T01:16:32.302Z,3.70
2019-02-26T01:19:15.289Z,3.80
2019-02-26T01:22:10.717Z,3.70
2019-02-26T01:24:49.699Z,3.70
2019-02-26T01:27:25.265Z,3.60
2019-02-26T01:30:04.357Z,3.50
2019-02-26T01:32:39.885Z,3.50
2019-02-26T01:35:17.345Z,3.40
2019-02-26T01:37:54.084Z,3.30
2019-02-26T01:40:39.382Z,3.30
2019-02-26T01:43:17.615Z,3.30
2019-02-26T01:45:55.711Z,3.30
2019-02-26T01:48:36.677Z,3.30
2019-02-26T01:51:21.374Z,3.20
2019-02-26T01:54:07.518Z,3.10
2019-02-26T01:56:43.616Z,3.00
2019-02-26T01:59:26.292Z,2.90
2019-02-26T02:02:04.143Z,2.80
2019-02-26T02:04:43.783Z,2.80
2019-02-26T02:11:04.813Z,2.70
2019-02-26T02:13:41.281Z,2.70
2019-02-26T02:16:18.753Z,2.70
2019-02-26T02:18:55.841Z,2.60
2019-02-26T02:21:39.868Z,2.50
2019-02-26T02:24:38.994Z,2.40
2019-02-26T02:27:19.923Z,2.30
2019-02-26T02:29:55.299Z,2.30
2019-02-26T02:32:36.533Z,2.20
2019-02-26T02:35:16.109Z,2.30
2019-02-26T02:37:53.722Z,2.30
2019-02-26T02:40:51.195Z,2.30
2019-02-26T02:43:25.485Z,2.30
2019-02-26T02:46:01.339Z,2.30
2019-02-26T02:51:39.438Z,2.30
2019-02-26T02:54:24.086Z,2.20
2019-02-26T02:57:02.485Z,2.20
2019-02-26T02:59:41.713Z,2.30
2019-02-26T03:02:20.517Z,2.20
2019-02-26T03:05:00.051Z,2.20
2019-02-26T03:07:36.621Z,2.10
2019-02-26T03:10:14.171Z,2.00
2019-02-26T03:12:54.414Z,2.00
2019-02-26T03:15:33.616Z,2.00
2019-02-26T03:18:09.917Z,2.10
2019-02-26T03:20:44.915Z,2.00
2019-02-26T03:23:24.973Z,2.10
2019-02-26T03:26:04.899Z,2.00
2019-02-26T03:28:39.984Z,2.00
2019-02-26T03:31:20.301Z,2.00
2019-02-26T03:34:04.245Z,1.90
2019-02-26T03:36:42.825Z,1.90
2019-02-26T03:39:24.111Z,1.90
2019-02-26T03:45:08.113Z,2.00
2019-02-26T03:47:43.612Z,2.00
2019-02-26T03:50:26.359Z,1.90
2019-02-26T03:52:58.861Z,1.90
2019-02-26T03:55:41.449Z,1.90
2019-02-26T04:01:53.197Z,1.80
2019-02-26T04:04:31.107Z,1.90
2019-02-26T04:07:09.918Z,1.90
2019-02-26T04:12:55.195Z,1.90
2019-02-26T04:15:36.381Z,1.90
2019-02-26T04:18:12.674Z,1.90
2019-02-26T04:21:35.312Z,2.00
2019-02-26T04:24:14.593Z,2.00
2019-02-26T04:27:30.679Z,2.00
2019-02-26T04:30:22.103Z,2.00
2019-02-26T04:33:32.820Z,2.10
2019-02-26T04:36:44.730Z,2.10
2019-02-26T04:40:17.576Z,2.10
2019-02-26T04:43:22.260Z,2.10
2019-02-26T04:46:47.190Z,2.10
2019-02-26T04:49:29.856Z,2.10
2019-02-26T04:52:10.724Z,2.00
2019-02-26T04:54:48.078Z,1.90
2019-02-26T04:57:30.466Z,1.90
2019-02-26T05:00:10.610Z,1.80
2019-02-26T05:03:04.922Z,1.80
2019-02-26T05:05:51.261Z,1.70
2019-02-26T05:11:31.707Z,1.60
2019-02-26T05:17:05.123Z,1.50
2019-02-26T05:19:45.945Z,1.50
2019-02-26T05:22:46.212Z,1.40
2019-02-26T05:25:31.349Z,1.40
2019-02-26T05:28:10.061Z,1.40
2019-02-26T05:31:13.890Z,1.40
2019-02-26T05:33:54.544Z,1.40
2019-02-26T05:39:54.530Z,1.30
2019-02-26T05:42:44.299Z,1.30
2019-02-26T05:45:58.132Z,1.30
2019-02-26T05:48:45.825Z,1.30
2019-02-26T05:51:35.038Z,1.20
2019-02-26T05:54:24.467Z,1.20
2019-02-26T05:57:26.225Z,1.20
2019-02-26T05:59:57.063Z,1.20
2019-02-26T06:05:58.337Z,1.20
2019-02-26T06:09:22.527Z,1.20
2019-02-26T06:12:01.124Z,1.20
2019-02-26T06:14:39.331Z,1.20
2019-02-26T06:17:16.884Z,1.20
2019-02-26T06:19:57.029Z,1.30
2019-02-26T06:22:34.823Z,1.30
2019-02-26T06:25:20.671Z,1.40
2019-02-26T06:28:02.234Z,1.40
2019-02-26T06:30:58.772Z,1.40
2019-02-26T06:33:38.460Z,1.40
2019-02-26T06:36:18.635Z,1.40
2019-02-26T06:39:06.005Z,1.50
2019-02-26T06:41:49.009Z,1.50
2019-02-26T06:44:34.091Z,1.50
2019-02-26T06:47:14.022Z,1.50
2019-02-26T06:50:08.067Z,1.50
2019-02-26T06:52:57.910Z,1.50
2019-02-26T06:55:35.877Z,1.50
2019-02-26T06:58:35.795Z,1.50
2019-02-26T07:01:21.447Z,1.50
2019-02-26T07:04:02.883Z,1.50
2019-02-26T07:06:47.116Z,1.50
2019-02-26T07:09:27.894Z,1.50
2019-02-26T07:12:11.046Z,1.50
2019-02-26T07:14:51.330Z,1.60
2019-02-26T07:17:38.524Z,1.60
2019-02-26T07:20:19.234Z,1.60
2019-02-26T07:23:03.459Z,1.70
2019-02-26T07:26:00.591Z,1.60
2019-02-26T07:28:46.471Z,1.60
2019-02-26T07:31:24.199Z,1.60
2019-02-26T07:34:01.351Z,1.60
2019-02-26T07:36:43.258Z,1.60
2019-02-26T07:39:30.320Z,1.50
2019-02-26T07:42:11.470Z,1.60
2019-02-26T07:44:49.825Z,1.60
2019-02-26T07:47:36.390Z,1.60
2019-02-26T07:50:15.717Z,1.60
2019-02-26T07:52:57.129Z,1.60
2019-02-26T07:55:38.213Z,1.60
2019-02-26T07:58:21.669Z,1.60
2019-02-26T08:01:03.112Z,1.60
2019-02-26T08:03:46.320Z,1.60
2019-02-26T08:06:22.858Z,1.60
2019-02-26T08:09:33.401Z,1.50
2019-02-26T08:12:20.325Z,1.50
2019-02-26T08:15:04.945Z,1.50
2019-02-26T08:17:53.205Z,1.50
2019-02-26T08:20:33.483Z,1.50
2019-02-26T08:23:14.875Z,1.40
2019-02-26T08:25:59.702Z,1.40
2019-02-26T08:28:39.002Z,1.40
2019-02-26T08:31:18.538Z,1.40
2019-02-26T08:34:12.610Z,1.30
2019-02-26T08:37:02.101Z,1.30
2019-02-26T08:39:45.000Z,1.30
2019-02-26T08:42:28.203Z,1.30
2019-02-26T08:45:09.273Z,1.20
2019-02-26T08:47:55.893Z,1.20
2019-02-26T08:50:36.292Z,1.10
2019-02-26T08:53:21.937Z,1.10
2019-02-26T08:55:58.865Z,1.00
2019-02-26T08:58:42.976Z,1.00
2019-02-26T09:01:27.064Z,1.00
2019-02-26T09:04:04.042Z,1.00
2019-02-26T09:06:44.418Z,1.00
2019-02-26T09:09:22.964Z,0.90
2019-02-26T09:12:17.367Z,0.80
2019-02-26T09:15:05.517Z,0.70
2019-02-26T09:17:46.526Z,0.60
2019-02-26T09:20:29.174Z,0.60
2019-02-26T09:23:04.788Z,0.50
2019-02-26T09:25:51.530Z,0.40
2019-02-26T09:28:33.272Z,0.40
2019-02-26T09:31:14.219Z,0.40
2019-02-26T09:33:50.590Z,0.30
2019-02-26T09:36:36.061Z,0.20
2019-02-26T09:39:27.519Z,0.10
2019-02-26T09:42:09.203Z,0.00
2019-02-26T09:44:42.887Z,0.00
2019-02-26T09:47:21.354Z,0.00
2019-02-26T09:50:01.150Z,0.00
2019-02-26T09:52:56.520Z,-0.10
2019-02-26T09:55:37.086Z,-0.10
2019-02-26T09:58:21.062Z,-0.20
2019-02-26T10:00:59.611Z,-0.20
2019-02-26T10:03:55.977Z,-0.20
2019-02-26T10:06:37.936Z,-0.30
2019-02-26T10:09:16.205Z,-0.40
2019-02-26T10:11:57.445Z,-0.40
2019-02-26T10:14:38.524Z,-0.40
2019-02-26T10:17:21.396Z,-0.50
2019-02-26T10:20:09.422Z,-0.50
2019-02-26T10:22:57.807Z,-0.50
2019-02-26T10:25:39.772Z,-0.60
2019-02-26T10:28:23.373Z,-0.60
2019-02-26T10:31:07.043Z,-0.70
2019-02-26T10:34:13.345Z,-0.70
2019-02-26T10:36:55.245Z,-0.70
2019-02-26T10:39:36.984Z,-0.80
2019-02-26T10:42:18.057Z,-0.90
2019-02-26T10:44:55.025Z,-0.90
2019-02-26T10:47:36.290Z,-1.00
2019-02-26T10:50:19.480Z,-1.00
2019-02-26T10:53:18.930Z,-1.00
2019-02-26T10:55:59.893Z,-1.00
2019-02-26T11:01:46.589Z,-1.10
2019-02-26T11:04:34.450Z,-1.10
2019-02-26T11:07:40.057Z,-1.10
2019-02-26T11:10:29.859Z,-1.10
2019-02-26T11:13:32.745Z,-1.10
2019-02-26T11:16:25.309Z,-1.20
2019-02-26T11:19:33.051Z,-1.20
2019-02-26T11:22:12.475Z,-1.20
2019-02-26T11:25:18.507Z,-1.20
2019-02-26T11:28:02.489Z,-1.20
2019-02-26T11:30:41.155Z,-1.30
2019-02-26T11:33:50.620Z,-1.30
2019-02-26T11:36:36.135Z,-1.30
2019-02-26T11:39:28.258Z,-1.30
2019-02-26T11:42:11.837Z,-1.30
2019-02-26T11:44:55.448Z,-1.30
2019-02-26T11:47:41.411Z,-1.30
2019-02-26T11:50:19.904Z,-1.30
2019-02-26T11:53:14.661Z,-1.30
2019-02-26T11:55:52.691Z,-1.40
2019-02-26T11:58:29.341Z,-1.40
2019-02-26T12:01:16.223Z,-1.40
2019-02-26T12:03:56.183Z,-1.40
2019-02-26T12:06:32.848Z,-1.40
2019-02-26T12:09:15.992Z,-1.40
2019-02-26T12:11:56.018Z,-1.50
2019-02-26T12:14:37.946Z,-1.50
2019-02-26T12:17:26.805Z,-1.50
2019-02-26T12:20:03.855Z,-1.50
2019-02-26T12:22:47.973Z,-1.50
2019-02-26T12:25:27.032Z,-1.50
2019-02-26T12:28:25.188Z,-1.50
2019-02-26T12:31:04.004Z,-1.60
2019-02-26T12:33:46.280Z,-1.70
2019-02-26T12:36:26.479Z,-1.70
2019-02-26T12:39:02.508Z,-1.70
2019-02-26T12:41:42.519Z,-1.70
2019-02-26T12:47:41.164Z,-1.80
2019-02-26T12:50:19.636Z,-1.80
2019-02-26T12:52:59.083Z,-1.80
2019-02-26T12:55:54.286Z,-1.80
2019-02-26T12:58:40.885Z,-1.90
2019-02-26T13:01:22.610Z,-1.90
2019-02-26T13:04:21.421Z,-1.90
2019-02-26T13:06:58.378Z,-1.90
2019-02-26T13:09:46.683Z,-1.90
2019-02-26T13:12:20.267Z,-2.00
2019-02-26T13:15:09.732Z,-1.90
2019-02-26T13:17:54.198Z,-2.00
2019-02-26T13:20:46.458Z,-2.00
2019-02-26T13:23:23.900Z,-2.00
2019-02-26T13:26:07.565Z,-2.00
2019-02-26T13:28:46.614Z,-2.10
2019-02-26T13:31:22.647Z,-2.10
2019-02-26T13:34:04.471Z,-2.10
2019-02-26T13:36:53.674Z,-2.20
2019-02-26T13:39:38.669Z,-2.10
2019-02-26T13:42:19.684Z,-2.20
2019-02-26T13:44:57.590Z,-2.20
2019-02-26T13:47:36.446Z,-2.20
2019-02-26T13:50:39.082Z,-2.20
2019-02-26T13:53:19.198Z,-2.20
2019-02-26T13:56:02.471Z,-2.20
2019-02-26T13:58:44.757Z,-2.20
2019-02-26T14:01:21.296Z,-2.20
2019-02-26T14:03:59.093Z,-2.30
2019-02-26T14:06:37.853Z,-2.30
2019-02-26T14:09:14.972Z,-2.30
2019-02-26T14:11:54.354Z,-2.30
2019-02-26T14:14:45.677Z,-2.30
2019-02-26T14:17:21.590Z,-2.40
2019-02-26T14:20:06.253Z,-2.40
2019-02-26T14:22:47.036Z,-2.40
2019-02-26T14:25:27.894Z,-2.40
2019-02-26T14:28:10.562Z,-2.40
2019-02-26T14:30:47.178Z,-2.40
2019-02-26T14:33:34.204Z,-2.40
2019-02-26T14:36:10.818Z,-2.50
2019-02-26T14:38:53.699Z,-2.50
2019-02-26T14:41:32.003Z,-2.50
2019-02-26T14:44:12.710Z,-2.50
2019-02-26T14:46:48.257Z,-2.50
2019-02-26T14:49:29.940Z,-2.60
2019-02-26T14:52:23.417Z,-2.60
2019-02-26T14:55:07.971Z,-2.60
2019-02-26T14:57:46.423Z,-2.60
2019-02-26T15:00:26.280Z,-2.60
2019-02-26T15:03:01.418Z,-2.60
2019-02-26T15:05:39.298Z,-2.60
2019-02-26T15:08:15.954Z,-2.60
2019-02-26T15:10:51.747Z,-2.60
2019-02-26T15:13:28.605Z,-2.60
2019-02-26T15:16:06.505Z,-2.50
2019-02-26T15:18:43.086Z,-2.50
2019-02-26T15:21:20.419Z,-2.50
2019-02-26T15:23:58.483Z,-2.40
2019-02-26T15:26:39.818Z,-2.40
2019-02-26T15:29:17.094Z,-2.40
2019-02-26T15:31:58.514Z,-2.30
2019-02-26T15:34:34.777Z,-2.30
2019-02-26T15:37:12.671Z,-2.20
2019-02-26T15:39:48.925Z,-2.30
2019-02-26T15:42:44.394Z,-2.20
2019-02-26T15:45:30.328Z,-2.20
2019-02-26T15:48:11.729Z,-2.10
2019-02-26T15:50:54.047Z,-2.10
2019-02-26T15:53:30.126Z,-2.00
2019-02-26T15:56:06.117Z,-2.00
2019-02-26T15:58:40.529Z,-1.90
2019-02-26T16:01:20.013Z,-1.90
2019-02-26T16:03:56.768Z,-1.90
2019-02-26T16:06:37.357Z,-1.80
2019-02-26T16:09:14.862Z,-1.80
2019-02-26T16:11:54.902Z,-1.70
2019-02-26T16:14:36.051Z,-1.60
2019-02-26T16:17:19.295Z,-1.60
2019-02-26T16:19:54.447Z,-1.40
2019-02-26T16:22:33.464Z,-1.30
2019-02-26T16:25:12.257Z,-1.20
2019-02-26T16:27:53.495Z,-1.00
2019-02-26T16:30:31.348Z,-1.00
2019-02-26T16:33:15.361Z,-0.80
2019-02-26T16:35:57.835Z,-0.70
2019-02-26T16:38:36.186Z,-0.60
2019-02-26T16:41:12.614Z,-0.50
2019-02-26T16:43:53.011Z,-0.40
2019-02-26T16:46:32.513Z,-0.30
2019-02-26T16:49:10.674Z,-0.30
2019-02-26T16:51:54.930Z,-0.20
2019-02-26T16:54:42.721Z,-0.10
2019-02-26T16:57:25.716Z,0.00
2019-02-26T17:00:02.386Z,0.00
2019-02-26T17:02:41.355Z,0.10
2019-02-26T17:05:23.774Z,0.10
2019-02-26T17:08:01.810Z,0.20
2019-02-26T17:10:40.000Z,0.30
2019-02-26T17:13:34.231Z,0.30
2019-02-26T17:18:55.497Z,0.40
2019-02-26T17:21:35.662Z,0.60
2019-02-26T17:24:10.917Z,0.70
2019-02-26T17:26:47.220Z,0.80
2019-02-26T17:29:26.504Z,0.90
2019-02-26T17:32:04.860Z,1.00
2019-02-26T17:34:50.804Z,1.00
2019-02-26T17:37:30.497Z,1.10
2019-02-26T17:40:07.727Z,1.10
2019-02-26T17:42:48.875Z,1.20
2019-02-26T17:45:28.557Z,1.40
2019-02-26T17:48:03.609Z,1.50
2019-02-26T17:50:46.706Z,1.50
2019-02-26T17:53:27.636Z,1.60
2019-02-26T17:56:02.007Z,1.70
2019-02-26T17:58:38.946Z,1.80
2019-02-26T18:01:15.079Z,1.90
2019-02-26T18:03:51.257Z,1.90
2019-02-26T18:06:27.416Z,2.00
2019-02-26T18:09:03.594Z,2.10
2019-02-26T18:11:52.976Z,2.10
2019-02-26T18:14:33.573Z,2.20
2019-02-26T18:17:11.617Z,2.20
2019-02-26T18:19:49.665Z,2.30
2019-02-26T18:22:26.835Z,2.30
2019-02-26T18:25:03.787Z,2.50
2019-02-26T18:27:46.772Z,2.40
2019-02-26T18:30:34.570Z,2.50
2019-02-26T18:33:27.450Z,2.50
2019-02-26T18:36:05.120Z,2.70
2019-02-26T18:38:48.677Z,2.70
2019-02-26T18:41:35.076Z,2.80
2019-02-26T18:44:10.090Z,2.80
2019-02-26T18:46:51.487Z,2.80
2019-02-26T18:49:40.835Z,2.90
2019-02-26T18:52:19.165Z,3.00
2019-02-26T18:54:58.296Z,3.10
2019-02-26T18:57:47.840Z,3.10
2019-02-26T19:00:29.699Z,3.10
2019-02-26T19:03:08.656Z,3.20
2019-02-26T19:05:43.098Z,3.30
2019-02-26T19:08:21.170Z,3.20
2019-02-26T19:10:56.838Z,3.20
2019-02-26T19:13:33.242Z,3.40
2019-02-26T19:16:08.013Z,3.40
2019-02-26T19:18:46.313Z,3.30
2019-02-26T19:21:22.388Z,3.50
2019-02-26T19:24:06.692Z,3.60
2019-02-26T19:26:47.410Z,3.60
2019-02-26T19:29:24.634Z,3.70
2019-02-26T19:32:02.946Z,3.70
2019-02-26T19:34:39.922Z,3.80
2019-02-26T19:37:19.459Z,3.80
2019-02-26T19:39:56.073Z,3.80
2019-02-26T19:42:36.464Z,3.80
2019-02-26T19:45:16.935Z,3.90
2019-02-26T19:47:56.093Z,4.00
2019-02-26T19:50:33.106Z,4.00
2019-02-26T19:53:12.919Z,4.10
2019-02-26T19:55:50.037Z,4.00
2019-02-26T19:58:25.930Z,4.00
2019-02-26T20:01:05.151Z,4.00
2019-02-26T20:03:45.071Z,4.20
2019-02-26T20:06:26.875Z,4.40
2019-02-26T20:09:06.520Z,4.50
2019-02-26T20:11:42.312Z,4.60
2019-02-26T20:14:21.681Z,4.60
2019-02-26T20:16:57.638Z,4.60
2019-02-26T20:19:33.095Z,4.70
2019-02-26T20:22:08.118Z,4.80
2019-02-26T20:27:42.945Z,5.00
2019-02-26T20:30:26.753Z,4.90
2019-02-26T20:33:12.075Z,5.00
2019-02-26T20:35:50.228Z,5.10
2019-02-26T20:38:40.192Z,5.20
2019-02-26T20:41:15.147Z,5.40
2019-02-26T20:43:51.611Z,5.40
2019-02-26T20:46:31.905Z,5.60
2019-02-26T20:49:09.847Z,5.70
2019-02-26T20:51:47.230Z,5.70
2019-02-26T20:54:27.361Z,5.60
2019-02-26T20:57:04.411Z,5.70
2019-02-26T20:59:40.420Z,5.70
2019-02-26T21:02:20.085Z,5.80
2019-02-26T21:05:00.923Z,5.80
2019-02-26T21:07:39.003Z,5.80
2019-02-26T21:10:21.785Z,6.00
2019-02-26T21:13:01.893Z,6.10
2019-02-26T21:15:38.932Z,6.10
2019-02-26T21:18:16.338Z,6.50
2019-02-26T21:20:52.729Z,6.80
2019-02-26T21:23:30.212Z,6.80
2019-02-26T21:26:07.710Z,6.80
2019-02-26T21:28:44.059Z,7.10
2019-02-26T21:31:21.615Z,7.10
2019-02-26T21:34:03.973Z,7.30
2019-02-26T21:36:52.011Z,7.30
2019-02-26T21:39:32.344Z,7.20
2019-02-26T21:42:10.893Z,7.20
2019-02-26T21:45:04.618Z,7.20
2019-02-26T21:47:42.710Z,7.40
2019-02-26T21:50:22.872Z,7.30
2019-02-26T21:53:01.397Z,7.20
2019-02-26T21:56:05.807Z,7.30
2019-02-26T21:58:49.693Z,7.30
2019-02-26T22:01:37.113Z,7.30
2019-02-26T22:04:17.767Z,7.60
2019-02-26T22:07:32.149Z,7.40
2019-02-26T22:10:11.355Z,7.40
2019-02-26T22:12:56.644Z,7.80
2019-02-26T22:15:36.096Z,8.00
2019-02-26T22:18:12.148Z,7.90
2019-02-26T22:20:48.958Z,8.30
2019-02-26T22:23:29.312Z,8.50
2019-02-26T22:26:06.621Z,8.60
2019-02-26T22:28:43.314Z,8.60
2019-02-26T22:31:21.051Z,8.40
2019-02-26T22:34:02.197Z,8.40
2019-02-26T22:36:36.615Z,8.30
2019-02-26T22:39:22.285Z,8.00
2019-02-26T22:41:56.870Z,8.10
2019-02-26T22:44:33.166Z,7.90
2019-02-26T22:47:08.556Z,8.00
2019-02-26T22:49:44.641Z,8.20
2019-02-26T22:52:22.584Z,8.20
2019-02-26T22:54:57.381Z,7.70
2019-02-26T22:57:33.692Z,7.60
2019-02-26T23:00:18.597Z,7.70
2019-02-26T23:03:01.297Z,8.00
2019-02-26T23:05:40.256Z,8.00
2019-02-26T23:08:18.948Z,7.30
2019-02-26T23:10:57.930Z,7.60
2019-02-26T23:13:33.091Z,7.90
2019-02-26T23:16:12.004Z,7.80
2019-02-26T23:18:46.942Z,7.30
2019-02-26T23:21:25.741Z,6.70
2019-02-26T23:24:02.490Z,6.40
2019-02-26T23:26:42.477Z,6.70
2019-02-26T23:29:22.352Z,6.70
2019-02-26T23:31:59.414Z,6.40
2019-02-26T23:34:42.169Z,6.10
2019-02-26T23:37:18.998Z,6.10
2019-02-26T23:39:56.262Z,5.90
2019-02-26T23:42:39.049Z,5.50
2019-02-26T23:45:14.520Z,5.30
2019-02-26T23:47:51.299Z,5.20
2019-02-26T23:50:31.300Z,5.10
2019-02-26T23:53:07.736Z,5.30
2019-02-26T23:55:52.121Z,5.20
2019-02-26T23:58:31.182Z,5.20
